sensor_id;sensor_type;location;lat;lon;timestamp;temperature;humidity
43043;DHT22;28667;50.758;6.096;2023-04-29T00:00:03;11.60;99.90
43043;DHT22;28667;50.758;6.096;2023-04-29T00:02:37;11.60;99.90
43043;DHT22;28667;50.758;6.096;2023-04-29T00:05:03;11.50;99.90
43043;DHT22;28667;50.758;6.096;2023-04-29T00:07:30;11.60;99.90
43043;DHT22;28667;50.758;6.096;2023-04-29T00:09:59;11.50;99.90
43043;DHT22;28667;50.758;6.096;2023-04-29T00:12:25;11.50;99.90
43043;DHT22;28667;50.758;6.096;2023-04-29T00:14:51;11.50;99.90
43043;DHT22;28667;50.758;6.096;2023-04-29T00:17:17;11.50;99.90
43043;DHT22;28667;50.758;6.096;2023-04-29T00:19:43;11.40;99.90
43043;DHT22;28667;50.758;6.096;2023-04-29T00:22:09;11.40;99.90
43043;DHT22;28667;50.758;6.096;2023-04-29T00:24:35;11.40;99.90
43043;DHT22;28667;50.758;6.096;2023-04-29T00:27:01;11.40;99.90
43043;DHT22;28667;50.758;6.096;2023-04-29T00:29:27;11.40;99.90
43043;DHT22;28667;50.758;6.096;2023-04-29T00:31:53;11.40;99.90
43043;DHT22;28667;50.758;6.096;2023-04-29T00:34:18;11.40;99.90
43043;DHT22;28667;50.758;6.096;2023-04-29T00:36:45;11.40;99.90
43043;DHT22;28667;50.758;6.096;2023-04-29T00:39:10;11.40;99.90
43043;DHT22;28667;50.758;6.096;2023-04-29T00:41:38;11.40;99.90
43043;DHT22;28667;50.758;6.096;2023-04-29T00:44:04;11.40;99.90
43043;DHT22;28667;50.758;6.096;2023-04-29T00:46:30;11.40;99.90
43043;DHT22;28667;50.758;6.096;2023-04-29T00:48:55;11.40;99.90
43043;DHT22;28667;50.758;6.096;2023-04-29T00:51:21;11.40;99.90
43043;DHT22;28667;50.758;6.096;2023-04-29T00:53:47;11.40;99.90
43043;DHT22;28667;50.758;6.096;2023-04-29T00:56:13;11.40;99.90
43043;DHT22;28667;50.758;6.096;2023-04-29T00:58:41;11.30;99.90
43043;DHT22;28667;50.758;6.096;2023-04-29T01:01:14;11.30;99.90
43043;DHT22;28667;50.758;6.096;2023-04-29T01:03:40;11.30;99.90
43043;DHT22;28667;50.758;6.096;2023-04-29T01:06:08;11.30;99.90
43043;DHT22;28667;50.758;6.096;2023-04-29T01:11:29;11.30;99.90
43043;DHT22;28667;50.758;6.096;2023-04-29T01:13:59;11.30;99.90
43043;DHT22;28667;50.758;6.096;2023-04-29T01:16:36;11.30;99.90
43043;DHT22;28667;50.758;6.096;2023-04-29T01:19:49;11.30;99.90
43043;DHT22;28667;50.758;6.096;2023-04-29T01:22:15;11.20;99.90
43043;DHT22;28667;50.758;6.096;2023-04-29T01:24:44;11.20;99.90
43043;DHT22;28667;50.758;6.096;2023-04-29T01:27:34;11.20;99.90
43043;DHT22;28667;50.758;6.096;2023-04-29T01:33:05;11.20;99.90
43043;DHT22;28667;50.758;6.096;2023-04-29T01:41:14;11.10;99.90
43043;DHT22;28667;50.758;6.096;2023-04-29T01:43:42;11.20;99.90
43043;DHT22;28667;50.758;6.096;2023-04-29T01:46:19;11.10;99.90
43043;DHT22;28667;50.758;6.096;2023-04-29T01:48:45;11.10;99.90
43043;DHT22;28667;50.758;6.096;2023-04-29T01:51:11;11.10;99.90
43043;DHT22;28667;50.758;6.096;2023-04-29T01:53:37;11.10;99.90
43043;DHT22;28667;50.758;6.096;2023-04-29T01:56:09;11.10;99.90
43043;DHT22;28667;50.758;6.096;2023-04-29T01:59:00;11.10;99.90
43043;DHT22;28667;50.758;6.096;2023-04-29T02:01:44;11.10;99.90
43043;DHT22;28667;50.758;6.096;2023-04-29T02:04:11;11.10;99.90
43043;DHT22;28667;50.758;6.096;2023-04-29T02:06:37;11.00;99.90
43043;DHT22;28667;50.758;6.096;2023-04-29T02:09:04;11.00;99.90
43043;DHT22;28667;50.758;6.096;2023-04-29T02:11:32;11.00;99.90
43043;DHT22;28667;50.758;6.096;2023-04-29T02:13:58;11.00;99.90
43043;DHT22;28667;50.758;6.096;2023-04-29T02:16:23;11.00;99.90
43043;DHT22;28667;50.758;6.096;2023-04-29T02:18:56;11.00;99.90
43043;DHT22;28667;50.758;6.096;2023-04-29T02:21:22;10.90;99.90
43043;DHT22;28667;50.758;6.096;2023-04-29T02:23:47;11.00;99.90
43043;DHT22;28667;50.758;6.096;2023-04-29T02:26:13;10.90;99.90
43043;DHT22;28667;50.758;6.096;2023-04-29T02:28:40;10.90;99.90
43043;DHT22;28667;50.758;6.096;2023-04-29T02:31:05;10.90;99.90
43043;DHT22;28667;50.758;6.096;2023-04-29T02:33:32;10.90;99.90
43043;DHT22;28667;50.758;6.096;2023-04-29T02:35:57;10.90;99.90
43043;DHT22;28667;50.758;6.096;2023-04-29T02:38:24;10.90;99.90
43043;DHT22;28667;50.758;6.096;2023-04-29T02:40:50;10.90;99.90
43043;DHT22;28667;50.758;6.096;2023-04-29T02:43:16;10.90;99.90
43043;DHT22;28667;50.758;6.096;2023-04-29T02:45:43;10.90;99.90
43043;DHT22;28667;50.758;6.096;2023-04-29T02:48:09;10.90;99.90
43043;DHT22;28667;50.758;6.096;2023-04-29T02:50:35;10.90;99.90
43043;DHT22;28667;50.758;6.096;2023-04-29T02:53:01;10.90;99.90
43043;DHT22;28667;50.758;6.096;2023-04-29T02:55:27;10.90;99.90
43043;DHT22;28667;50.758;6.096;2023-04-29T02:57:56;10.90;99.90
43043;DHT22;28667;50.758;6.096;2023-04-29T03:00:22;10.90;99.90
43043;DHT22;28667;50.758;6.096;2023-04-29T03:02:48;10.80;99.90
43043;DHT22;28667;50.758;6.096;2023-04-29T03:05:14;10.80;99.90
43043;DHT22;28667;50.758;6.096;2023-04-29T03:07:40;10.80;99.90
43043;DHT22;28667;50.758;6.096;2023-04-29T03:10:06;10.80;99.90
43043;DHT22;28667;50.758;6.096;2023-04-29T03:12:34;10.80;99.90
43043;DHT22;28667;50.758;6.096;2023-04-29T03:15:01;10.80;99.90
43043;DHT22;28667;50.758;6.096;2023-04-29T03:17:26;10.70;99.90
43043;DHT22;28667;50.758;6.096;2023-04-29T03:19:52;10.70;99.90
43043;DHT22;28667;50.758;6.096;2023-04-29T03:22:19;10.70;99.90
43043;DHT22;28667;50.758;6.096;2023-04-29T03:24:44;10.60;99.90
43043;DHT22;28667;50.758;6.096;2023-04-29T03:27:10;10.60;99.90
43043;DHT22;28667;50.758;6.096;2023-04-29T03:29:36;10.50;99.90
43043;DHT22;28667;50.758;6.096;2023-04-29T03:32:02;10.50;99.90
43043;DHT22;28667;50.758;6.096;2023-04-29T03:34:29;10.50;99.90
43043;DHT22;28667;50.758;6.096;2023-04-29T03:37:09;10.50;99.90
43043;DHT22;28667;50.758;6.096;2023-04-29T03:39:38;10.50;99.90
43043;DHT22;28667;50.758;6.096;2023-04-29T03:42:03;10.40;99.90
43043;DHT22;28667;50.758;6.096;2023-04-29T03:44:29;10.40;99.90
43043;DHT22;28667;50.758;6.096;2023-04-29T03:46:55;10.40;99.90
43043;DHT22;28667;50.758;6.096;2023-04-29T03:49:22;10.30;99.90
43043;DHT22;28667;50.758;6.096;2023-04-29T03:51:48;10.30;99.90
43043;DHT22;28667;50.758;6.096;2023-04-29T03:54:15;10.20;99.90
43043;DHT22;28667;50.758;6.096;2023-04-29T03:56:41;10.20;99.90
43043;DHT22;28667;50.758;6.096;2023-04-29T03:59:08;10.20;99.90
43043;DHT22;28667;50.758;6.096;2023-04-29T04:01:35;10.10;99.90
43043;DHT22;28667;50.758;6.096;2023-04-29T04:04:01;10.10;99.90
43043;DHT22;28667;50.758;6.096;2023-04-29T04:06:28;10.10;99.90
43043;DHT22;28667;50.758;6.096;2023-04-29T04:08:56;10.00;99.90
43043;DHT22;28667;50.758;6.096;2023-04-29T04:11:27;10.00;99.90
43043;DHT22;28667;50.758;6.096;2023-04-29T04:13:56;10.00;99.90
43043;DHT22;28667;50.758;6.096;2023-04-29T04:16:23;10.00;99.90
43043;DHT22;28667;50.758;6.096;2023-04-29T04:18:48;9.90;99.90
43043;DHT22;28667;50.758;6.096;2023-04-29T04:21:14;9.80;99.90
43043;DHT22;28667;50.758;6.096;2023-04-29T04:23:45;9.80;99.90
43043;DHT22;28667;50.758;6.096;2023-04-29T04:26:14;9.80;99.90
43043;DHT22;28667;50.758;6.096;2023-04-29T04:28:46;9.80;99.90
43043;DHT22;28667;50.758;6.096;2023-04-29T04:31:19;9.80;99.90
43043;DHT22;28667;50.758;6.096;2023-04-29T04:33:44;9.70;99.90
43043;DHT22;28667;50.758;6.096;2023-04-29T04:36:11;9.70;99.90
43043;DHT22;28667;50.758;6.096;2023-04-29T04:38:37;9.60;99.90
43043;DHT22;28667;50.758;6.096;2023-04-29T04:41:08;9.60;99.90
43043;DHT22;28667;50.758;6.096;2023-04-29T04:43:36;9.60;99.90
43043;DHT22;28667;50.758;6.096;2023-04-29T04:46:11;9.60;99.90
43043;DHT22;28667;50.758;6.096;2023-04-29T04:48:41;9.50;99.90
43043;DHT22;28667;50.758;6.096;2023-04-29T04:51:09;9.50;99.90
43043;DHT22;28667;50.758;6.096;2023-04-29T04:53:35;9.60;99.90
43043;DHT22;28667;50.758;6.096;2023-04-29T04:56:07;9.50;99.90
43043;DHT22;28667;50.758;6.096;2023-04-29T04:58:33;9.50;99.90
43043;DHT22;28667;50.758;6.096;2023-04-29T05:00:59;9.50;99.90
43043;DHT22;28667;50.758;6.096;2023-04-29T05:03:25;9.40;99.90
43043;DHT22;28667;50.758;6.096;2023-04-29T05:06:01;9.40;99.90
43043;DHT22;28667;50.758;6.096;2023-04-29T05:08:28;9.40;99.90
43043;DHT22;28667;50.758;6.096;2023-04-29T05:10:57;9.30;99.90
43043;DHT22;28667;50.758;6.096;2023-04-29T05:13:23;9.30;99.90
43043;DHT22;28667;50.758;6.096;2023-04-29T05:15:50;9.30;99.90
43043;DHT22;28667;50.758;6.096;2023-04-29T05:18:20;9.20;99.90
43043;DHT22;28667;50.758;6.096;2023-04-29T05:20:48;9.20;99.90
43043;DHT22;28667;50.758;6.096;2023-04-29T05:23:14;9.20;99.90
43043;DHT22;28667;50.758;6.096;2023-04-29T05:25:42;9.20;99.90
43043;DHT22;28667;50.758;6.096;2023-04-29T05:28:08;9.20;99.90
43043;DHT22;28667;50.758;6.096;2023-04-29T05:30:36;9.20;99.90
43043;DHT22;28667;50.758;6.096;2023-04-29T05:33:04;9.20;99.90
43043;DHT22;28667;50.758;6.096;2023-04-29T05:35:29;9.20;99.90
43043;DHT22;28667;50.758;6.096;2023-04-29T05:37:57;9.20;99.90
43043;DHT22;28667;50.758;6.096;2023-04-29T05:40:38;9.20;99.90
43043;DHT22;28667;50.758;6.096;2023-04-29T05:43:20;9.10;99.90
43043;DHT22;28667;50.758;6.096;2023-04-29T05:45:46;9.10;99.90
43043;DHT22;28667;50.758;6.096;2023-04-29T05:48:13;9.10;99.90
43043;DHT22;28667;50.758;6.096;2023-04-29T05:50:38;9.10;99.90
43043;DHT22;28667;50.758;6.096;2023-04-29T05:53:04;9.10;99.90
43043;DHT22;28667;50.758;6.096;2023-04-29T05:55:31;9.20;99.90
43043;DHT22;28667;50.758;6.096;2023-04-29T05:57:56;9.10;99.90
43043;DHT22;28667;50.758;6.096;2023-04-29T06:00:22;9.20;99.90
43043;DHT22;28667;50.758;6.096;2023-04-29T06:02:56;9.20;99.90
43043;DHT22;28667;50.758;6.096;2023-04-29T06:05:22;9.10;99.90
43043;DHT22;28667;50.758;6.096;2023-04-29T06:08:05;9.20;99.90
43043;DHT22;28667;50.758;6.096;2023-04-29T06:10:43;9.20;99.90
43043;DHT22;28667;50.758;6.096;2023-04-29T06:13:09;9.20;99.90
43043;DHT22;28667;50.758;6.096;2023-04-29T06:15:35;9.30;99.90
43043;DHT22;28667;50.758;6.096;2023-04-29T06:18:01;9.20;99.90
43043;DHT22;28667;50.758;6.096;2023-04-29T06:20:27;9.20;99.90
43043;DHT22;28667;50.758;6.096;2023-04-29T06:22:53;9.30;99.90
43043;DHT22;28667;50.758;6.096;2023-04-29T06:25:18;9.40;99.90
43043;DHT22;28667;50.758;6.096;2023-04-29T06:27:49;9.40;99.90
43043;DHT22;28667;50.758;6.096;2023-04-29T06:30:17;9.50;99.90
43043;DHT22;28667;50.758;6.096;2023-04-29T06:32:43;9.50;99.90
43043;DHT22;28667;50.758;6.096;2023-04-29T06:35:09;9.50;99.90
43043;DHT22;28667;50.758;6.096;2023-04-29T06:37:55;9.60;99.90
43043;DHT22;28667;50.758;6.096;2023-04-29T06:40:47;9.50;99.90
43043;DHT22;28667;50.758;6.096;2023-04-29T06:43:15;9.50;99.90
43043;DHT22;28667;50.758;6.096;2023-04-29T06:46:10;9.50;99.90
43043;DHT22;28667;50.758;6.096;2023-04-29T06:48:44;9.40;99.90
43043;DHT22;28667;50.758;6.096;2023-04-29T06:51:10;9.40;99.90
43043;DHT22;28667;50.758;6.096;2023-04-29T06:53:37;9.30;99.90
43043;DHT22;28667;50.758;6.096;2023-04-29T06:56:03;9.30;99.90
43043;DHT22;28667;50.758;6.096;2023-04-29T06:58:30;9.30;99.90
43043;DHT22;28667;50.758;6.096;2023-04-29T07:00:55;9.20;99.90
43043;DHT22;28667;50.758;6.096;2023-04-29T07:03:21;9.20;99.90
43043;DHT22;28667;50.758;6.096;2023-04-29T07:05:47;9.20;99.90
43043;DHT22;28667;50.758;6.096;2023-04-29T07:08:13;9.20;99.90
43043;DHT22;28667;50.758;6.096;2023-04-29T07:10:39;9.20;99.90
43043;DHT22;28667;50.758;6.096;2023-04-29T07:13:08;9.30;99.90
43043;DHT22;28667;50.758;6.096;2023-04-29T07:15:35;9.40;99.90
43043;DHT22;28667;50.758;6.096;2023-04-29T07:18:03;9.50;99.90
43043;DHT22;28667;50.758;6.096;2023-04-29T07:20:29;9.60;99.90
43043;DHT22;28667;50.758;6.096;2023-04-29T07:22:55;9.60;99.90
43043;DHT22;28667;50.758;6.096;2023-04-29T07:25:21;9.70;99.90
43043;DHT22;28667;50.758;6.096;2023-04-29T07:27:47;9.70;99.90
43043;DHT22;28667;50.758;6.096;2023-04-29T07:30:13;9.60;99.90
43043;DHT22;28667;50.758;6.096;2023-04-29T07:32:38;9.70;99.90
43043;DHT22;28667;50.758;6.096;2023-04-29T07:35:04;9.70;99.90
43043;DHT22;28667;50.758;6.096;2023-04-29T07:37:30;9.60;99.90
43043;DHT22;28667;50.758;6.096;2023-04-29T07:39:56;9.60;99.90
43043;DHT22;28667;50.758;6.096;2023-04-29T07:42:22;9.60;99.90
43043;DHT22;28667;50.758;6.096;2023-04-29T07:44:48;9.60;99.90
43043;DHT22;28667;50.758;6.096;2023-04-29T07:47:14;9.60;99.90
43043;DHT22;28667;50.758;6.096;2023-04-29T07:49:40;9.60;99.90
43043;DHT22;28667;50.758;6.096;2023-04-29T07:52:07;9.60;99.90
43043;DHT22;28667;50.758;6.096;2023-04-29T07:54:35;9.60;99.90
43043;DHT22;28667;50.758;6.096;2023-04-29T07:57:01;9.60;99.90
43043;DHT22;28667;50.758;6.096;2023-04-29T07:59:31;9.60;99.90
43043;DHT22;28667;50.758;6.096;2023-04-29T08:01:57;9.60;99.90
43043;DHT22;28667;50.758;6.096;2023-04-29T08:04:23;9.50;99.90
43043;DHT22;28667;50.758;6.096;2023-04-29T08:06:58;9.50;99.90
43043;DHT22;28667;50.758;6.096;2023-04-29T08:09:24;9.60;99.90
43043;DHT22;28667;50.758;6.096;2023-04-29T08:11:50;9.60;99.90
43043;DHT22;28667;50.758;6.096;2023-04-29T08:14:16;9.60;99.90
43043;DHT22;28667;50.758;6.096;2023-04-29T08:16:41;9.70;99.90
43043;DHT22;28667;50.758;6.096;2023-04-29T08:19:07;9.80;99.90
43043;DHT22;28667;50.758;6.096;2023-04-29T08:21:33;9.90;99.90
43043;DHT22;28667;50.758;6.096;2023-04-29T08:24:00;10.00;99.90
43043;DHT22;28667;50.758;6.096;2023-04-29T08:26:25;10.00;99.90
43043;DHT22;28667;50.758;6.096;2023-04-29T08:28:51;10.10;99.90
43043;DHT22;28667;50.758;6.096;2023-04-29T08:31:20;10.10;99.90
43043;DHT22;28667;50.758;6.096;2023-04-29T08:33:47;10.10;99.90
43043;DHT22;28667;50.758;6.096;2023-04-29T08:36:12;10.00;99.90
43043;DHT22;28667;50.758;6.096;2023-04-29T08:38:38;10.00;99.90
43043;DHT22;28667;50.758;6.096;2023-04-29T08:41:07;10.00;99.90
43043;DHT22;28667;50.758;6.096;2023-04-29T08:43:34;10.00;99.90
43043;DHT22;28667;50.758;6.096;2023-04-29T08:46:02;10.00;99.90
43043;DHT22;28667;50.758;6.096;2023-04-29T08:48:29;9.90;99.90
43043;DHT22;28667;50.758;6.096;2023-04-29T08:50:55;9.80;99.90
43043;DHT22;28667;50.758;6.096;2023-04-29T08:53:23;9.80;99.90
43043;DHT22;28667;50.758;6.096;2023-04-29T08:55:49;9.70;99.90
43043;DHT22;28667;50.758;6.096;2023-04-29T08:58:15;9.70;99.90
43043;DHT22;28667;50.758;6.096;2023-04-29T09:00:42;9.60;99.90
43043;DHT22;28667;50.758;6.096;2023-04-29T09:05:42;9.50;99.90
43043;DHT22;28667;50.758;6.096;2023-04-29T09:08:11;9.40;99.90
43043;DHT22;28667;50.758;6.096;2023-04-29T09:10:40;9.50;99.90
43043;DHT22;28667;50.758;6.096;2023-04-29T09:13:06;9.50;99.90
43043;DHT22;28667;50.758;6.096;2023-04-29T09:15:36;9.50;99.90
43043;DHT22;28667;50.758;6.096;2023-04-29T09:18:02;9.60;99.90
43043;DHT22;28667;50.758;6.096;2023-04-29T09:20:29;9.60;99.90
43043;DHT22;28667;50.758;6.096;2023-04-29T09:22:57;9.70;99.90
43043;DHT22;28667;50.758;6.096;2023-04-29T09:25:23;9.70;99.90
43043;DHT22;28667;50.758;6.096;2023-04-29T09:27:49;9.70;99.90
43043;DHT22;28667;50.758;6.096;2023-04-29T09:30:15;9.70;99.90
43043;DHT22;28667;50.758;6.096;2023-04-29T09:32:42;9.80;99.90
43043;DHT22;28667;50.758;6.096;2023-04-29T09:35:29;9.70;99.90
43043;DHT22;28667;50.758;6.096;2023-04-29T09:38:12;9.80;99.90
43043;DHT22;28667;50.758;6.096;2023-04-29T09:40:40;9.80;99.90
43043;DHT22;28667;50.758;6.096;2023-04-29T09:43:14;9.90;99.90
43043;DHT22;28667;50.758;6.096;2023-04-29T09:45:45;10.00;99.90
43043;DHT22;28667;50.758;6.096;2023-04-29T09:48:12;10.10;99.90
43043;DHT22;28667;50.758;6.096;2023-04-29T09:50:40;10.10;99.90
43043;DHT22;28667;50.758;6.096;2023-04-29T09:53:07;10.20;99.90
43043;DHT22;28667;50.758;6.096;2023-04-29T09:55:57;10.10;99.90
43043;DHT22;28667;50.758;6.096;2023-04-29T09:58:32;10.00;99.90
43043;DHT22;28667;50.758;6.096;2023-04-29T10:01:02;9.90;99.90
43043;DHT22;28667;50.758;6.096;2023-04-29T10:03:36;9.90;99.90
43043;DHT22;28667;50.758;6.096;2023-04-29T10:06:06;9.90;99.90
43043;DHT22;28667;50.758;6.096;2023-04-29T10:08:33;9.90;99.90
43043;DHT22;28667;50.758;6.096;2023-04-29T10:11:03;9.90;99.90
43043;DHT22;28667;50.758;6.096;2023-04-29T10:13:29;10.00;99.90
43043;DHT22;28667;50.758;6.096;2023-04-29T10:18:51;10.20;99.90
43043;DHT22;28667;50.758;6.096;2023-04-29T10:21:21;10.20;99.90
43043;DHT22;28667;50.758;6.096;2023-04-29T10:23:49;10.30;99.90
43043;DHT22;28667;50.758;6.096;2023-04-29T10:26:15;10.30;99.90
43043;DHT22;28667;50.758;6.096;2023-04-29T10:28:43;10.30;99.90
43043;DHT22;28667;50.758;6.096;2023-04-29T10:31:11;10.30;99.90
43043;DHT22;28667;50.758;6.096;2023-04-29T10:33:39;10.30;99.90
43043;DHT22;28667;50.758;6.096;2023-04-29T10:36:09;10.40;99.90
43043;DHT22;28667;50.758;6.096;2023-04-29T10:38:45;10.40;99.90
43043;DHT22;28667;50.758;6.096;2023-04-29T10:41:23;10.40;99.90
43043;DHT22;28667;50.758;6.096;2023-04-29T10:43:51;10.70;99.90
43043;DHT22;28667;50.758;6.096;2023-04-29T10:46:19;10.90;99.90
43043;DHT22;28667;50.758;6.096;2023-04-29T10:48:46;11.10;99.90
43043;DHT22;28667;50.758;6.096;2023-04-29T10:51:12;11.30;99.90
43043;DHT22;28667;50.758;6.096;2023-04-29T10:59:09;12.10;99.90
43043;DHT22;28667;50.758;6.096;2023-04-29T11:04:10;12.30;99.90
43043;DHT22;28667;50.758;6.096;2023-04-29T11:06:41;12.30;99.90
43043;DHT22;28667;50.758;6.096;2023-04-29T11:11:42;12.20;99.90
43043;DHT22;28667;50.758;6.096;2023-04-29T11:14:09;12.10;99.90
43043;DHT22;28667;50.758;6.096;2023-04-29T11:16:46;12.10;99.90
43043;DHT22;28667;50.758;6.096;2023-04-29T11:19:15;12.00;99.90
43043;DHT22;28667;50.758;6.096;2023-04-29T11:21:41;12.00;99.90
43043;DHT22;28667;50.758;6.096;2023-04-29T11:24:07;12.00;99.90
43043;DHT22;28667;50.758;6.096;2023-04-29T11:26:36;12.00;99.90
43043;DHT22;28667;50.758;6.096;2023-04-29T11:29:02;12.00;99.90
43043;DHT22;28667;50.758;6.096;2023-04-29T11:31:32;12.00;99.90
43043;DHT22;28667;50.758;6.096;2023-04-29T11:33:59;12.00;99.90
43043;DHT22;28667;50.758;6.096;2023-04-29T11:36:25;12.00;99.90
43043;DHT22;28667;50.758;6.096;2023-04-29T11:38:52;11.90;99.90
43043;DHT22;28667;50.758;6.096;2023-04-29T11:41:18;11.80;99.90
43043;DHT22;28667;50.758;6.096;2023-04-29T11:43:53;11.80;99.90
43043;DHT22;28667;50.758;6.096;2023-04-29T11:46:19;11.90;99.90
43043;DHT22;28667;50.758;6.096;2023-04-29T11:48:48;12.00;99.90
43043;DHT22;28667;50.758;6.096;2023-04-29T11:51:15;12.00;99.90
43043;DHT22;28667;50.758;6.096;2023-04-29T11:53:42;12.00;99.90
43043;DHT22;28667;50.758;6.096;2023-04-29T11:56:08;12.00;99.90
43043;DHT22;28667;50.758;6.096;2023-04-29T11:58:35;12.00;99.90
43043;DHT22;28667;50.758;6.096;2023-04-29T12:01:02;12.00;99.90
43043;DHT22;28667;50.758;6.096;2023-04-29T12:03:31;12.00;99.90
43043;DHT22;28667;50.758;6.096;2023-04-29T12:05:57;12.10;99.90
43043;DHT22;28667;50.758;6.096;2023-04-29T12:08:25;12.10;99.90
43043;DHT22;28667;50.758;6.096;2023-04-29T12:10:54;12.10;99.90
43043;DHT22;28667;50.758;6.096;2023-04-29T12:13:22;12.00;99.90
43043;DHT22;28667;50.758;6.096;2023-04-29T12:15:49;11.90;99.90
43043;DHT22;28667;50.758;6.096;2023-04-29T12:18:17;11.90;99.90
43043;DHT22;28667;50.758;6.096;2023-04-29T12:20:44;11.90;99.90
43043;DHT22;28667;50.758;6.096;2023-04-29T12:23:14;11.90;99.90
43043;DHT22;28667;50.758;6.096;2023-04-29T12:25:40;12.00;99.90
43043;DHT22;28667;50.758;6.096;2023-04-29T12:28:14;12.20;99.90
43043;DHT22;28667;50.758;6.096;2023-04-29T12:30:40;12.30;99.90
43043;DHT22;28667;50.758;6.096;2023-04-29T12:33:09;12.40;99.90
43043;DHT22;28667;50.758;6.096;2023-04-29T12:35:35;12.60;99.90
43043;DHT22;28667;50.758;6.096;2023-04-29T12:38:01;12.70;99.90
43043;DHT22;28667;50.758;6.096;2023-04-29T12:40:27;12.70;99.90
43043;DHT22;28667;50.758;6.096;2023-04-29T12:42:53;12.70;99.90
43043;DHT22;28667;50.758;6.096;2023-04-29T12:45:30;12.60;99.90
43043;DHT22;28667;50.758;6.096;2023-04-29T12:47:57;12.70;99.90
43043;DHT22;28667;50.758;6.096;2023-04-29T12:50:30;12.70;99.90
43043;DHT22;28667;50.758;6.096;2023-04-29T12:53:01;12.80;99.90
43043;DHT22;28667;50.758;6.096;2023-04-29T12:55:28;12.80;99.90
43043;DHT22;28667;50.758;6.096;2023-04-29T12:57:54;12.80;99.90
43043;DHT22;28667;50.758;6.096;2023-04-29T13:00:20;12.90;99.90
43043;DHT22;28667;50.758;6.096;2023-04-29T13:02:46;12.80;99.90
43043;DHT22;28667;50.758;6.096;2023-04-29T13:05:12;12.80;99.90
43043;DHT22;28667;50.758;6.096;2023-04-29T13:07:38;12.80;99.90
43043;DHT22;28667;50.758;6.096;2023-04-29T13:10:05;12.90;99.90
43043;DHT22;28667;50.758;6.096;2023-04-29T13:12:31;12.90;99.90
43043;DHT22;28667;50.758;6.096;2023-04-29T13:14:57;12.80;99.90
43043;DHT22;28667;50.758;6.096;2023-04-29T13:17:23;12.70;99.90
43043;DHT22;28667;50.758;6.096;2023-04-29T13:19:48;12.70;99.90
43043;DHT22;28667;50.758;6.096;2023-04-29T13:22:15;12.70;99.90
43043;DHT22;28667;50.758;6.096;2023-04-29T13:24:41;12.80;99.90
43043;DHT22;28667;50.758;6.096;2023-04-29T13:27:06;12.80;99.90
43043;DHT22;28667;50.758;6.096;2023-04-29T13:29:32;12.90;99.90
43043;DHT22;28667;50.758;6.096;2023-04-29T13:31:58;12.90;99.90
43043;DHT22;28667;50.758;6.096;2023-04-29T13:34:24;13.00;99.90
43043;DHT22;28667;50.758;6.096;2023-04-29T13:36:49;13.00;99.90
43043;DHT22;28667;50.758;6.096;2023-04-29T13:39:15;13.00;99.90
43043;DHT22;28667;50.758;6.096;2023-04-29T13:41:42;13.00;99.90
43043;DHT22;28667;50.758;6.096;2023-04-29T13:44:07;13.10;99.90
43043;DHT22;28667;50.758;6.096;2023-04-29T13:46:33;13.20;99.90
43043;DHT22;28667;50.758;6.096;2023-04-29T13:48:59;13.30;99.90
43043;DHT22;28667;50.758;6.096;2023-04-29T13:51:24;13.40;99.90
43043;DHT22;28667;50.758;6.096;2023-04-29T13:53:50;13.50;99.90
43043;DHT22;28667;50.758;6.096;2023-04-29T13:56:16;13.60;99.90
43043;DHT22;28667;50.758;6.096;2023-04-29T13:58:42;13.60;99.90
43043;DHT22;28667;50.758;6.096;2023-04-29T14:01:07;13.60;99.90
43043;DHT22;28667;50.758;6.096;2023-04-29T14:03:33;13.60;99.90
43043;DHT22;28667;50.758;6.096;2023-04-29T14:06:05;13.60;99.90
43043;DHT22;28667;50.758;6.096;2023-04-29T14:08:31;13.60;99.90
43043;DHT22;28667;50.758;6.096;2023-04-29T14:10:57;13.60;99.90
43043;DHT22;28667;50.758;6.096;2023-04-29T14:13:23;13.60;99.90
43043;DHT22;28667;50.758;6.096;2023-04-29T14:15:49;13.60;99.90
43043;DHT22;28667;50.758;6.096;2023-04-29T14:18:15;13.60;99.90
43043;DHT22;28667;50.758;6.096;2023-04-29T14:20:41;13.60;99.90
43043;DHT22;28667;50.758;6.096;2023-04-29T14:23:06;13.60;99.90
43043;DHT22;28667;50.758;6.096;2023-04-29T14:25:32;13.50;99.90
43043;DHT22;28667;50.758;6.096;2023-04-29T14:27:58;13.50;99.90
43043;DHT22;28667;50.758;6.096;2023-04-29T14:30:23;13.50;99.90
43043;DHT22;28667;50.758;6.096;2023-04-29T14:32:49;13.50;99.90
43043;DHT22;28667;50.758;6.096;2023-04-29T14:35:15;13.50;99.90
43043;DHT22;28667;50.758;6.096;2023-04-29T14:37:41;13.50;99.90
43043;DHT22;28667;50.758;6.096;2023-04-29T14:40:07;13.60;99.90
43043;DHT22;28667;50.758;6.096;2023-04-29T14:42:33;13.60;99.90
43043;DHT22;28667;50.758;6.096;2023-04-29T14:44:59;13.60;99.90
43043;DHT22;28667;50.758;6.096;2023-04-29T14:47:25;13.60;99.90
43043;DHT22;28667;50.758;6.096;2023-04-29T14:49:51;13.60;99.90
43043;DHT22;28667;50.758;6.096;2023-04-29T14:52:17;13.60;99.90
43043;DHT22;28667;50.758;6.096;2023-04-29T14:54:42;13.70;99.90
43043;DHT22;28667;50.758;6.096;2023-04-29T14:57:08;13.70;99.90
43043;DHT22;28667;50.758;6.096;2023-04-29T14:59:35;13.80;99.90
43043;DHT22;28667;50.758;6.096;2023-04-29T15:02:01;13.80;99.90
43043;DHT22;28667;50.758;6.096;2023-04-29T15:04:26;13.90;99.90
43043;DHT22;28667;50.758;6.096;2023-04-29T15:06:52;14.00;99.90
43043;DHT22;28667;50.758;6.096;2023-04-29T15:09:19;14.00;99.90
43043;DHT22;28667;50.758;6.096;2023-04-29T15:11:44;14.10;99.90
43043;DHT22;28667;50.758;6.096;2023-04-29T15:14:10;14.20;99.90
43043;DHT22;28667;50.758;6.096;2023-04-29T15:16:36;14.20;99.90
43043;DHT22;28667;50.758;6.096;2023-04-29T15:19:01;14.20;99.90
43043;DHT22;28667;50.758;6.096;2023-04-29T15:21:27;14.20;99.90
43043;DHT22;28667;50.758;6.096;2023-04-29T15:23:53;14.10;99.90
43043;DHT22;28667;50.758;6.096;2023-04-29T15:26:19;14.00;99.90
43043;DHT22;28667;50.758;6.096;2023-04-29T15:28:46;13.90;99.90
43043;DHT22;28667;50.758;6.096;2023-04-29T15:31:12;13.90;99.90
43043;DHT22;28667;50.758;6.096;2023-04-29T15:33:37;13.80;99.90
43043;DHT22;28667;50.758;6.096;2023-04-29T15:36:04;13.70;99.90
43043;DHT22;28667;50.758;6.096;2023-04-29T15:38:30;13.60;99.90
43043;DHT22;28667;50.758;6.096;2023-04-29T15:40:57;13.60;99.90
43043;DHT22;28667;50.758;6.096;2023-04-29T15:43:27;13.50;99.90
43043;DHT22;28667;50.758;6.096;2023-04-29T15:45:53;13.30;99.90
43043;DHT22;28667;50.758;6.096;2023-04-29T15:48:19;13.30;99.90
43043;DHT22;28667;50.758;6.096;2023-04-29T15:50:45;13.20;99.90
43043;DHT22;28667;50.758;6.096;2023-04-29T15:53:11;13.10;99.90
43043;DHT22;28667;50.758;6.096;2023-04-29T15:55:37;13.10;99.90
43043;DHT22;28667;50.758;6.096;2023-04-29T15:58:03;13.00;99.90
43043;DHT22;28667;50.758;6.096;2023-04-29T16:00:29;13.00;99.90
43043;DHT22;28667;50.758;6.096;2023-04-29T16:02:54;12.90;99.90
43043;DHT22;28667;50.758;6.096;2023-04-29T16:05:20;12.90;99.90